Time;durP1;ratioP1;P1;durP2;ratioP2;P2;SDS_P1;SDS_P2;PMS_P1;PMS_P2;Temp;Humidity;BMP_temperature;BMP_pressure;BME280_temperature;BME280_humidity;BME280_pressure;Samples;Min_cycle;Max_cycle;Signal;HPM_P1;HPM_P2
2021/09/25 00:00:35;;;;;;;3.38;1.85;;;21.60;55.60;;;;;;5074863;28;20025;-69
2021/09/25 00:03:05;;;;;;;2.03;1.85;;;21.70;55.10;;;;;;5074814;28;20027;-69
2021/09/25 00:05:43;;;;;;;2.83;2.17;;;;;;;;;;5073117;28;20537;-68
2021/09/25 00:08:11;;;;;;;4.68;2.20;;;;;;;;;;5074781;28;20450;-69
2021/09/25 00:10:38;;;;;;;2.90;2.30;;;;;;;;;;5073398;28;20111;-69
2021/09/25 00:13:06;;;;;;;2.72;1.98;;;21.80;69.80;;;;;;5074735;28;20038;-68
2021/09/25 00:15:34;;;;;;;2.78;2.58;;;22.00;63.30;;;;;;5074382;28;20045;-68
2021/09/25 00:18:02;;;;;;;3.83;2.35;;;22.00;65.60;;;;;;5073260;28;20048;-68
2021/09/25 00:20:30;;;;;;;3.20;2.45;;;22.20;66.90;;;;;;5074746;28;20107;-68
2021/09/25 00:23:00;;;;;;;2.92;2.63;;;22.30;66.40;;;;;;5074441;28;20103;-68
2021/09/25 00:25:27;;;;;;;4.43;3.00;;;22.40;66.40;;;;;;5074453;28;20024;-68
2021/09/25 00:27:54;;;;;;;2.80;2.60;;;;;;;;;;5073055;28;20115;-68
2021/09/25 00:30:22;;;;;;;2.70;2.40;;;;;;;;;;5074238;28;20594;-68
2021/09/25 00:32:49;;;;;;;3.03;2.72;;;;;;;;;;5074195;28;20029;-68
2021/09/25 00:35:17;;;;;;;4.38;2.50;;;;;;;;;;5072891;28;20044;-67
2021/09/25 00:37:44;;;;;;;2.85;2.53;;;22.80;66.40;;;;;;5074348;28;20524;-68
2021/09/25 00:40:15;;;;;;;5.88;2.78;;;22.90;69.20;;;;;;5074207;28;20071;-68
2021/09/25 00:42:42;;;;;;;;;;;22.90;74.80;;;;;;5074563;28;20032;-68
2021/09/25 00:45:10;;;;;;;7.18;3.28;;;22.90;75.70;;;;;;5074090;28;20352;-68
2021/09/25 00:47:38;;;;;;;6.35;3.30;;;22.80;72.60;;;;;;5072696;28;20389;-68
2021/09/25 00:50:08;;;;;;;5.72;3.50;;;22.60;75.00;;;;;;5073784;28;20024;-69
2021/09/25 00:52:35;;;;;;;6.40;3.13;;;22.80;75.50;;;;;;5074094;28;20021;-68
2021/09/25 00:55:04;;;;;;;8.25;3.58;;;22.50;74.80;;;;;;5072330;28;20431;-68
2021/09/25 00:57:33;;;;;;;7.85;3.60;;;22.60;77.10;;;;;;5073756;28;20017;-67
2021/09/25 01:00:02;;;;;;;8.13;3.50;;;22.50;79.30;;;;;;5073197;28;20111;-68
2021/09/25 01:02:30;;;;;;;7.07;4.00;;;22.50;76.70;;;;;;5073611;28;20029;-67
2021/09/25 01:04:57;;;;;;;9.32;4.07;;;22.60;78.10;;;;;;5072375;28;20073;-68
2021/09/25 01:07:25;;;;;;;10.68;3.95;;;22.60;76.60;;;;;;5073602;28;20027;-68
2021/09/25 01:09:53;;;;;;;9.63;4.10;;;22.40;79.80;;;;;;5073388;28;20443;-68
2021/09/25 01:12:20;;;;;;;12.45;4.70;;;22.40;81.70;;;;;;5072079;28;20029;-67
2021/09/25 01:14:48;;;;;;;17.52;5.57;;;22.50;84.70;;;;;;5071939;28;20021;-68
2021/09/25 01:17:15;;;;;;;16.30;4.72;;;22.80;84.40;;;;;;5073397;28;20028;-69
2021/09/25 01:19:44;;;;;;;16.80;4.88;;;22.70;87.10;;;;;;5073383;28;20027;-68
2021/09/25 01:22:12;;;;;;;13.73;5.20;;;22.70;89.00;;;;;;5073321;28;20028;-69
2021/09/25 01:24:39;;;;;;;10.77;4.13;;;22.90;90.10;;;;;;5072002;28;20078;-68
2021/09/25 01:27:07;;;;;;;12.38;4.78;;;22.30;83.30;;;;;;5073346;28;20020;-69
2021/09/25 01:29:35;;;;;;;14.07;5.25;;;22.60;83.90;;;;;;5073136;28;20024;-67
2021/09/25 01:32:04;;;;;;;10.45;4.20;;;22.40;89.10;;;;;;5071772;28;20025;-69
2021/09/25 01:34:32;;;;;;;13.90;5.03;;;22.50;87.80;;;;;;5073203;28;20048;-69
2021/09/25 01:36:59;;;;;;;15.20;4.72;;;22.30;87.00;;;;;;5073086;28;20071;-69
2021/09/25 01:39:27;;;;;;;12.68;4.32;;;22.20;87.10;;;;;;5073039;28;20370;-69
2021/09/25 01:41:55;;;;;;;14.40;4.38;;;21.90;86.30;;;;;;5073022;28;20024;-69
2021/09/25 01:44:23;;;;;;;12.90;4.68;;;22.00;88.90;;;;;;5073001;28;20020;-69
2021/09/25 01:46:50;;;;;;;16.60;5.20;;;22.20;90.40;;;;;;5073103;28;20562;-69
2021/09/25 01:49:18;;;;;;;16.15;4.38;;;22.40;90.60;;;;;;5072950;28;20031;-69
2021/09/25 01:51:45;;;;;;;13.85;5.07;;;22.40;90.20;;;;;;5071450;28;20143;-68
2021/09/25 01:54:15;;;;;;;14.15;5.15;;;22.30;90.50;;;;;;5072978;28;20023;-69
2021/09/25 01:56:45;;;;;;;17.20;5.57;;;22.60;91.70;;;;;;5071634;28;20060;-69
2021/09/25 01:59:13;;;;;;;14.60;4.93;;;22.50;91.60;;;;;;5072930;28;20020;-68
2021/09/25 02:01:40;;;;;;;16.05;5.38;;;22.30;92.50;;;;;;5072919;28;20025;-68
2021/09/25 02:04:08;;;;;;;11.60;5.18;;;22.30;92.60;;;;;;5072805;28;20481;-69
2021/09/25 02:06:35;;;;;;;17.98;5.55;;;22.70;91.40;;;;;;5072835;28;20508;-69
2021/09/25 02:09:03;;;;;;;19.23;5.78;;;22.70;90.90;;;;;;5072761;28;20603;-69
2021/09/25 02:11:31;;;;;;;19.23;5.88;;;22.90;90.60;;;;;;5074689;28;20385;-68
2021/09/25 02:13:58;;;;;;;11.88;4.97;;;22.40;90.60;;;;;;5076953;28;20023;-68
2021/09/25 02:16:26;;;;;;;13.98;5.20;;;22.20;91.40;;;;;;5076600;28;20040;-69
2021/09/25 02:18:53;;;;;;;16.83;5.60;;;21.70;91.90;;;;;;5076869;28;20029;-68
2021/09/25 02:21:20;;;;;;;12.77;5.28;;;21.30;92.20;;;;;;5076894;28;20054;-68
2021/09/25 02:23:48;;;;;;;15.57;5.03;;;21.60;92.60;;;;;;5076835;28;20052;-68
2021/09/25 02:26:15;;;;;;;14.65;5.05;;;22.00;91.60;;;;;;5075295;28;20025;-68
2021/09/25 02:28:43;;;;;;;10.43;5.00;;;22.10;91.50;;;;;;5076528;28;20373;-68
2021/09/25 02:31:10;;;;;;;14.25;5.38;;;22.10;91.50;;;;;;5076346;28;20055;-68
2021/09/25 02:33:37;;;;;;;12.98;4.70;;;22.40;90.90;;;;;;5076616;28;20104;-68
2021/09/25 02:36:05;;;;;;;13.73;5.22;;;22.30;91.40;;;;;;5076509;28;20027;-68
2021/09/25 02:38:32;;;;;;;15.52;5.30;;;22.20;91.70;;;;;;5076446;28;20489;-68
2021/09/25 02:40:59;;;;;;;15.25;5.50;;;22.20;92.40;;;;;;5076400;28;20027;-68
2021/09/25 02:43:27;;;;;;;15.25;5.60;;;22.10;92.20;;;;;;5076561;28;20397;-68
2021/09/25 02:45:54;;;;;;;12.48;4.97;;;21.50;92.90;;;;;;5076295;28;20497;-68
2021/09/25 02:48:21;;;;;;;14.60;5.60;;;22.00;92.90;;;;;;5076333;28;20016;-69
2021/09/25 02:50:49;;;;;;;10.65;4.78;;;22.20;91.70;;;;;;5076114;28;20028;-70
2021/09/25 02:53:16;;;;;;;12.95;5.70;;;22.10;92.40;;;;;;5075005;28;20028;-68
2021/09/25 02:55:44;;;;;;;10.80;5.10;;;22.10;91.60;;;;;;5076115;28;20028;-66
2021/09/25 02:58:11;;;;;;;11.13;4.65;;;21.70;91.80;;;;;;5074802;28;20029;-69
2021/09/25 03:00:38;;;;;;;10.55;4.82;;;21.80;91.70;;;;;;5076188;28;20496;-69
2021/09/25 03:03:06;;;;;;;12.63;5.03;;;21.30;91.80;;;;;;5074667;28;20029;-69
2021/09/25 03:05:33;;;;;;;12.05;4.40;;;21.30;92.60;;;;;;5075839;28;20393;-68
2021/09/25 03:08:00;;;;;;;11.88;4.70;;;21.20;91.90;;;;;;5074632;28;20028;-68
2021/09/25 03:10:30;;;;;;;11.25;4.60;;;21.10;92.10;;;;;;5075737;28;20016;-68
2021/09/25 03:12:58;;;;;;;9.23;4.30;;;21.00;92.90;;;;;;5075810;28;20020;-68
2021/09/25 03:15:25;;;;;;;9.35;4.38;;;20.90;93.20;;;;;;5075518;28;20115;-68
2021/09/25 03:17:52;;;;;;;10.50;3.95;;;20.90;93.80;;;;;;5075843;28;20032;-69
2021/09/25 03:20:20;;;;;;;14.45;4.63;;;20.70;93.60;;;;;;5075707;28;20032;-68
2021/09/25 03:22:47;;;;;;;11.07;4.40;;;20.70;93.70;;;;;;5075225;28;20370;-70
2021/09/25 03:25:15;;;;;;;12.48;4.97;;;20.70;94.00;;;;;;5075619;28;20484;-69
2021/09/25 03:27:43;;;;;;;16.13;4.80;;;21.00;93.40;;;;;;5074316;28;20733;-69
2021/09/25 03:30:12;;;;;;;13.20;4.78;;;20.70;94.20;;;;;;5075461;28;20035;-68
2021/09/25 03:32:40;;;;;;;11.60;4.75;;;20.10;94.60;;;;;;5075385;28;20021;-68
2021/09/25 03:35:08;;;;;;;12.07;4.75;;;19.70;95.10;;;;;;5075421;28;20021;-69
2021/09/25 03:37:35;;;;;;;11.40;4.95;;;19.70;95.50;;;;;;5075629;28;20027;-68
2021/09/25 03:40:04;;;;;;;18.58;5.00;;;20.10;95.00;;;;;;5075401;28;20029;-68
2021/09/25 03:42:31;;;;;;;16.10;5.07;;;19.90;95.00;;;;;;5075239;28;20024;-68
2021/09/25 03:44:59;;;;;;;12.85;4.97;;;20.10;96.00;;;;;;5075392;28;20032;-67
2021/09/25 03:47:26;;;;;;;10.27;3.97;;;20.00;95.30;;;;;;5075201;28;20017;-69
2021/09/25 03:49:53;;;;;;;11.77;4.85;;;19.80;95.40;;;;;;5075011;28;20021;-69
2021/09/25 03:52:21;;;;;;;12.57;5.68;;;19.50;95.60;;;;;;5075118;28;20020;-69
2021/09/25 03:54:48;;;;;;;13.70;4.85;;;19.40;96.40;;;;;;5075078;28;20123;-69
2021/09/25 03:57:15;;;;;;;11.88;5.22;;;19.90;95.70;;;;;;5074884;28;20016;-69
2021/09/25 03:59:43;;;;;;;14.48;5.47;;;19.60;95.80;;;;;;5074579;28;20047;-69
2021/09/25 04:02:10;;;;;;;12.95;4.93;;;19.70;96.20;;;;;;5074871;28;20032;-69
2021/09/25 04:04:37;;;;;;;13.57;5.00;;;19.40;95.90;;;;;;5074634;28;20023;-69
2021/09/25 04:07:05;;;;;;;13.75;5.32;;;19.30;96.10;;;;;;5074726;28;20028;-69
2021/09/25 04:09:32;;;;;;;10.82;4.53;;;19.20;96.60;;;;;;5074726;28;20029;-69
2021/09/25 04:11:59;;;;;;;17.83;4.65;;;19.60;95.70;;;;;;5074672;28;20378;-69
2021/09/25 04:14:27;;;;;;;12.93;4.57;;;19.90;94.50;;;;;;5074736;28;20055;-69
2021/09/25 04:16:55;;;;;;;12.32;4.00;;;19.80;94.60;;;;;;5073343;28;20049;-68
2021/09/25 04:19:22;;;;;;;12.45;4.47;;;19.60;94.70;;;;;;5074497;28;20540;-68
2021/09/25 04:21:50;;;;;;;13.00;5.05;;;19.60;95.00;;;;;;5073161;28;20123;-68
2021/09/25 04:24:17;;;;;;;15.05;4.57;;;19.30;95.20;;;;;;5074548;28;20443;-69
2021/09/25 04:26:45;;;;;;;15.13;5.30;;;19.20;95.10;;;;;;5074458;28;20024;-69
2021/09/25 04:29:12;;;;;;;12.40;4.40;;;19.30;95.40;;;;;;5074431;28;20469;-67
2021/09/25 04:31:40;;;;;;;14.60;5.18;;;19.10;95.20;;;;;;5074492;28;20020;-68
2021/09/25 04:34:07;;;;;;;14.68;4.45;;;18.60;95.50;;;;;;5073315;28;20020;-68
2021/09/25 04:36:36;;;;;;;13.35;4.85;;;18.70;96.60;;;;;;5074174;28;20028;-68
2021/09/25 04:39:04;;;;;;;13.32;4.70;;;18.70;97.30;;;;;;5074115;28;20070;-68
2021/09/25 04:41:31;;;;;;;14.77;4.93;;;18.70;98.40;;;;;;5074081;28;20021;-67
2021/09/25 04:43:58;;;;;;;14.98;4.72;;;18.60;99.20;;;;;;5073980;28;20032;-69
2021/09/25 04:46:26;;;;;;;19.67;4.95;;;18.80;99.60;;;;;;5072672;28;20419;-69
2021/09/25 04:48:53;;;;;;;14.65;4.82;;;18.90;99.00;;;;;;5073877;28;20063;-69
2021/09/25 04:51:24;;;;;;;14.45;4.55;;;18.70;99.00;;;;;;5073760;28;20056;-69
2021/09/25 04:53:51;;;;;;;;;;;18.60;98.80;;;;;;5074490;28;20013;-69
2021/09/25 04:56:18;;;;;;;8.98;3.83;;;18.50;99.00;;;;;;5072433;28;19915;-68
2021/09/25 04:58:45;;;;;;;14.52;5.10;;;18.30;99.60;;;;;;5073785;28;20418;-69
2021/09/25 05:01:13;;;;;;;13.82;4.75;;;18.10;99.40;;;;;;5073552;28;20362;-67
2021/09/25 05:03:41;;;;;;;11.15;4.57;;;17.90;99.80;;;;;;5073464;28;20026;-66
2021/09/25 05:06:11;;;;;;;9.13;4.10;;;17.80;99.90;;;;;;5073499;28;20484;-68
2021/09/25 05:08:39;;;;;;;10.80;4.10;;;17.90;99.90;;;;;;5073542;28;20025;-68
2021/09/25 05:11:06;;;;;;;11.88;4.10;;;18.30;99.90;;;;;;5073234;28;20031;-69
2021/09/25 05:13:34;;;;;;;13.02;4.53;;;18.70;99.00;;;;;;5071976;28;20017;-69
2021/09/25 05:16:01;;;;;;;9.93;4.35;;;18.70;98.90;;;;;;5072983;28;20071;-71
2021/09/25 05:18:28;;;;;;;11.18;4.25;;;18.50;98.10;;;;;;5073175;28;20020;-70
2021/09/25 05:20:58;;;;;;;13.48;4.82;;;18.30;98.60;;;;;;5055919;28;20052;-71
2021/09/25 05:23:26;;;;;;;13.02;4.88;;;18.00;99.20;;;;;;5071891;28;20095;-68
2021/09/25 05:25:53;;;;;;;11.65;4.53;;;17.90;99.40;;;;;;5071847;28;20024;-70
2021/09/25 05:28:21;;;;;;;12.15;4.32;;;17.60;99.60;;;;;;5073382;28;20030;-72
2021/09/25 05:30:48;;;;;;;11.63;5.15;;;17.70;99.90;;;;;;5071780;28;20055;-73
2021/09/25 05:33:15;;;;;;;14.30;4.90;;;17.70;99.90;;;;;;5072907;28;20447;-69
2021/09/25 05:35:43;;;;;;;8.35;3.85;;;17.60;99.90;;;;;;5072983;28;20020;-69
2021/09/25 05:38:10;;;;;;;9.02;4.38;;;17.20;99.90;;;;;;5072879;28;20029;-69
2021/09/25 05:40:38;;;;;;;11.75;4.55;;;17.10;99.90;;;;;;5073172;28;20029;-71
2021/09/25 05:43:06;;;;;;;11.70;4.13;;;16.90;99.90;;;;;;5055320;28;20462;-71
2021/09/25 05:45:34;;;;;;;11.73;3.92;;;16.90;99.90;;;;;;5055103;28;20028;-73
2021/09/25 05:48:01;;;;;;;12.27;4.30;;;16.90;99.90;;;;;;5072923;28;20031;-70
2021/09/25 05:50:28;;;;;;;11.10;3.75;;;16.80;99.90;;;;;;5071490;28;20052;-71
2021/09/25 05:52:55;;;;;;;12.60;4.57;;;16.90;99.90;;;;;;5072945;28;20078;-71
2021/09/25 05:55:23;;;;;;;9.55;4.18;;;17.30;99.90;;;;;;5072868;28;20024;-70
2021/09/25 05:57:50;;;;;;;10.35;4.43;;;17.40;99.90;;;;;;5073048;28;20033;-69
2021/09/25 06:00:18;;;;;;;9.85;4.40;;;17.30;99.90;;;;;;5071524;28;20074;-69
2021/09/25 06:02:45;;;;;;;11.48;4.05;;;17.00;99.90;;;;;;5071544;28;20024;-69
2021/09/25 06:05:13;;;;;;;8.55;4.43;;;16.90;99.90;;;;;;5072773;28;20028;-69
2021/09/25 06:07:40;;;;;;;10.30;3.90;;;16.80;99.90;;;;;;5072713;28;20396;-70
2021/09/25 06:10:08;;;;;;;8.15;4.00;;;16.60;99.90;;;;;;5072779;28;20068;-69
2021/09/25 06:12:35;;;;;;;9.85;3.83;;;16.70;99.90;;;;;;5072698;28;20028;-69
2021/09/25 06:15:04;;;;;;;12.25;3.85;;;16.80;99.90;;;;;;5071262;28;20025;-71
2021/09/25 06:17:31;;;;;;;10.48;3.70;;;16.80;99.90;;;;;;5071307;28;20036;-70
2021/09/25 06:19:59;;;;;;;6.97;4.13;;;16.80;99.90;;;;;;5072735;28;20029;-69
2021/09/25 06:22:26;;;;;;;9.65;4.20;;;16.80;99.90;;;;;;5071456;28;20069;-71
2021/09/25 06:24:57;;;;;;;12.55;4.35;;;16.70;99.90;;;;;;5071619;28;20046;-71
2021/09/25 06:27:24;;;;;;;12.77;4.18;;;16.80;99.90;;;;;;5072530;28;20370;-70
2021/09/25 06:29:51;;;;;;;10.65;3.65;;;16.90;99.90;;;;;;5072364;28;20033;-71
2021/09/25 06:32:20;;;;;;;11.15;3.70;;;16.90;99.90;;;;;;5072668;28;20065;-72
2021/09/25 06:34:47;;;;;;;8.27;3.97;;;16.90;99.90;;;;;;5072374;28;20025;-70
2021/09/25 06:37:14;;;;;;;8.82;4.10;;;16.90;99.90;;;;;;5071131;28;20024;-71
2021/09/25 06:39:42;;;;;;;8.57;3.92;;;16.70;99.90;;;;;;5072522;28;20024;-70
2021/09/25 06:42:09;;;;;;;9.88;3.85;;;16.80;99.90;;;;;;5072864;28;20469;-71
2021/09/25 06:44:36;;;;;;;8.55;3.30;;;16.60;99.90;;;;;;5072390;28;20039;-70
2021/09/25 06:47:04;;;;;;;12.25;3.88;;;16.60;99.90;;;;;;5072358;28;20103;-72
2021/09/25 06:49:31;;;;;;;9.68;4.03;;;16.50;99.90;;;;;;5072194;28;20380;-71
2021/09/25 06:51:58;;;;;;;13.68;5.20;;;16.40;99.90;;;;;;5072326;28;20016;-70
2021/09/25 06:54:26;;;;;;;14.43;4.57;;;16.20;99.90;;;;;;5072270;28;20083;-70
2021/09/25 06:56:53;;;;;;;10.43;4.20;;;16.20;99.90;;;;;;5073093;28;20027;-71
2021/09/25 06:59:21;;;;;;;10.40;4.68;;;16.10;99.90;;;;;;5075945;28;20045;-70
2021/09/25 07:01:51;;;;;;;14.23;4.45;;;16.10;99.90;;;;;;5076046;28;20427;-70
2021/09/25 07:04:19;;;;;;;10.57;5.07;;;16.10;99.90;;;;;;5076245;28;20012;-70
2021/09/25 07:06:46;;;;;;;13.85;4.32;;;16.20;99.90;;;;;;5074667;28;20031;-70
2021/09/25 07:09:14;;;;;;;13.43;4.47;;;16.10;99.90;;;;;;5075916;28;20376;-70
2021/09/25 07:11:42;;;;;;;11.57;4.43;;;16.10;99.90;;;;;;5074520;28;20485;-69
2021/09/25 07:14:09;;;;;;;9.98;4.20;;;16.00;99.90;;;;;;5075876;28;20094;-71
2021/09/25 07:16:37;;;;;;;13.13;5.45;;;15.90;99.90;;;;;;5075703;28;20040;-71
2021/09/25 07:19:05;;;;;;;8.13;4.20;;;15.90;99.90;;;;;;5075778;28;20039;-71
2021/09/25 07:21:33;;;;;;;13.43;5.40;;;15.90;99.90;;;;;;5074222;28;20066;-71
2021/09/25 07:24:01;;;;;;;10.55;4.43;;;15.80;99.90;;;;;;5075583;28;20427;-71
2021/09/25 07:26:28;;;;;;;12.57;5.50;;;15.90;99.90;;;;;;5074289;28;20024;-71
2021/09/25 07:28:56;;;;;;;13.88;5.15;;;15.80;99.90;;;;;;5074173;28;20024;-71
2021/09/25 07:31:23;;;;;;;12.15;5.32;;;15.80;99.90;;;;;;5074166;28;20024;-70
2021/09/25 07:33:50;;;;;;;12.13;5.18;;;15.70;99.90;;;;;;5075441;28;20470;-71
2021/09/25 07:36:18;;;;;;;12.25;5.15;;;15.70;99.90;;;;;;5075229;28;20044;-71
2021/09/25 07:38:45;;;;;;;33.63;26.15;;;15.70;99.90;;;;;;5075245;28;20101;-71
2021/09/25 07:41:13;;;;;;;15.27;8.40;;;15.70;99.90;;;;;;5074024;28;20063;-71
2021/09/25 07:43:40;;;;;;;12.00;6.82;;;15.60;99.90;;;;;;5073923;28;20082;-70
2021/09/25 07:46:07;;;;;;;21.85;13.32;;;15.60;99.90;;;;;;5075168;28;20024;-72
2021/09/25 07:48:34;;;;;;;14.73;7.10;;;15.70;99.90;;;;;;5075168;28;20473;-71
2021/09/25 07:51:02;;;;;;;10.95;4.80;;;15.60;99.90;;;;;;5075006;28;20486;-71
2021/09/25 07:53:29;;;;;;;15.00;6.97;;;15.50;99.90;;;;;;5075091;28;20017;-71
2021/09/25 07:55:57;;;;;;;15.18;7.25;;;15.50;99.90;;;;;;5073681;28;20017;-72
2021/09/25 07:58:24;;;;;;;26.05;16.02;;;15.60;99.90;;;;;;5074961;28;20021;-71
2021/09/25 08:00:51;;;;;;;20.35;11.90;;;15.60;99.90;;;;;;5073637;28;20025;-71
2021/09/25 08:03:19;;;;;;;84.47;75.20;;;15.50;99.90;;;;;;5074826;28;20035;-71
2021/09/25 08:05:47;;;;;;;20.50;14.75;;;15.50;99.90;;;;;;5073522;28;20025;-71
2021/09/25 08:08:15;;;;;;;39.30;23.10;;;15.50;99.90;;;;;;5072363;28;20079;-71
2021/09/25 08:10:42;;;;;;;44.63;35.03;;;15.40;99.90;;;;;;5074518;28;20024;-71
2021/09/25 08:13:09;;;;;;;70.53;61.30;;;15.30;99.90;;;;;;5073335;28;20543;-71
2021/09/25 08:15:37;;;;;;;64.15;52.55;;;15.30;99.90;;;;;;5074438;28;20052;-70
2021/09/25 08:18:04;;;;;;;23.50;14.82;;;15.30;99.90;;;;;;5073254;28;20365;-70
2021/09/25 08:20:31;;;;;;;21.95;14.00;;;15.30;99.90;;;;;;5074580;28;20099;-70
2021/09/25 08:22:59;;;;;;;21.70;10.13;;;15.20;99.90;;;;;;5074484;28;20025;-70
2021/09/25 08:25:26;;;;;;;19.88;14.48;;;15.20;99.90;;;;;;5073100;28;20056;-70
2021/09/25 08:27:53;;;;;;;18.38;12.20;;;15.30;99.90;;;;;;5074405;28;20446;-70
2021/09/25 08:30:24;;;;;;;17.15;7.95;;;15.20;99.90;;;;;;5074716;28;20071;-70
2021/09/25 08:32:53;;;;;;;14.57;8.30;;;15.10;99.90;;;;;;5074249;28;20123;-69
2021/09/25 08:35:22;;;;;;;18.70;11.38;;;15.10;99.90;;;;;;5074296;28;20122;-70
2021/09/25 08:37:50;;;;;;;11.93;6.82;;;15.10;99.90;;;;;;5074172;28;20016;-70
2021/09/25 08:40:21;;;;;;;14.63;9.13;;;15.10;99.90;;;;;;5074247;28;20035;-68
2021/09/25 08:42:50;;;;;;;13.43;5.07;;;15.10;99.90;;;;;;5074083;28;20051;-71
2021/09/25 08:45:18;;;;;;;18.70;10.60;;;15.00;99.90;;;;;;5073934;28;20146;-69
2021/09/25 08:47:46;;;;;;;18.08;11.13;;;15.00;99.90;;;;;;5074161;28;20028;-69
2021/09/25 08:50:15;;;;;;;16.13;7.13;;;14.90;99.90;;;;;;5073776;28;20025;-68
2021/09/25 08:52:43;;;;;;;11.95;5.28;;;14.90;99.90;;;;;;5073999;28;20050;-68
2021/09/25 08:55:12;;;;;;;14.45;6.93;;;14.70;99.90;;;;;;5073974;28;20508;-69
2021/09/25 08:57:40;;;;;;;12.18;6.47;;;14.80;99.90;;;;;;5073900;28;20469;-69
2021/09/25 09:00:42;;;;;;;14.52;8.40;;;14.70;99.90;;;;;;5073724;28;20035;-69
2021/09/25 09:03:24;;;;;;;13.35;7.30;;;14.70;99.90;;;;;;5073885;28;20035;-69
2021/09/25 09:05:53;;;;;;;16.65;7.70;;;14.70;99.90;;;;;;5073613;28;20024;-71
2021/09/25 09:08:23;;;;;;;12.02;5.15;;;14.70;99.90;;;;;;5073502;28;20031;-69
2021/09/25 09:10:51;;;;;;;14.10;7.00;;;14.60;99.90;;;;;;5073381;28;20104;-71
2021/09/25 09:13:18;;;;;;;16.63;7.65;;;14.60;99.90;;;;;;5072187;28;20024;-70
2021/09/25 09:15:50;;;;;;;14.73;7.53;;;14.50;99.90;;;;;;5072028;28;20465;-70
2021/09/25 09:18:21;;;;;;;15.68;6.15;;;14.50;99.90;;;;;;5072114;28;20432;-70
2021/09/25 09:21:24;;;;;;;15.85;6.07;;;14.40;99.90;;;;;;5071750;28;20027;-70
2021/09/25 09:23:54;;;;;;;14.35;6.22;;;14.30;99.90;;;;;;5041719;28;20489;-70
2021/09/25 09:26:28;;;;;;;15.20;5.68;;;14.20;99.90;;;;;;5073199;28;20028;-71
2021/09/25 09:28:57;;;;;;;14.32;6.47;;;14.20;99.90;;;;;;5071964;28;20033;-70
2021/09/25 09:31:26;;;;;;;14.25;5.50;;;14.20;99.90;;;;;;5073135;28;20025;-72
2021/09/25 09:33:56;;;;;;;12.32;6.40;;;14.30;99.90;;;;;;5071605;28;20481;-70
2021/09/25 09:36:33;;;;;;;10.60;4.22;;;14.40;99.90;;;;;;5072866;28;20052;-70
2021/09/25 09:39:11;;;;;;;9.77;4.47;;;14.30;99.90;;;;;;5072928;28;20025;-69
2021/09/25 09:41:58;;;;;;;8.57;3.70;;;14.30;99.90;;;;;;5072941;28;20043;-71
2021/09/25 09:44:29;;;;;;;9.98;3.97;;;14.30;99.90;;;;;;5072958;28;20496;-72
2021/09/25 09:47:02;;;;;;;10.48;4.38;;;14.20;99.90;;;;;;5072967;28;20526;-72
2021/09/25 09:49:38;;;;;;;12.82;4.05;;;14.20;99.90;;;;;;5071489;28;20412;-72
2021/09/25 09:52:15;;;;;;;13.93;6.18;;;14.20;99.90;;;;;;5072934;28;20031;-71
2021/09/25 09:54:49;;;;;;;9.35;3.80;;;14.30;99.90;;;;;;5071510;28;20017;-72
2021/09/25 09:57:19;;;;;;;12.80;3.97;;;14.00;99.90;;;;;;5072941;28;20023;-72
2021/09/25 09:59:48;;;;;;;12.70;4.50;;;14.30;99.90;;;;;;5072878;28;20024;-72
2021/09/25 10:02:17;;;;;;;15.55;5.03;;;14.30;99.90;;;;;;5072726;28;20028;-72
2021/09/25 10:04:44;;;;;;;14.40;5.53;;;14.30;99.90;;;;;;5071244;28;20028;-70
2021/09/25 10:07:12;;;;;;;9.95;4.38;;;14.40;99.90;;;;;;5071298;28;20020;-70
2021/09/25 10:09:41;;;;;;;8.52;3.80;;;14.50;99.90;;;;;;5072597;28;20024;-71
2021/09/25 10:12:11;;;;;;;9.80;4.30;;;14.40;99.90;;;;;;5072667;28;20481;-70
2021/09/25 10:14:41;;;;;;;11.18;4.32;;;14.50;99.90;;;;;;5072861;28;20028;-71
2021/09/25 10:17:13;;;;;;;18.67;5.77;;;14.50;99.90;;;;;;5071082;28;20106;-71
2021/09/25 10:19:43;;;;;;;7.03;4.28;;;14.50;99.90;;;;;;5072497;28;20028;-71
2021/09/25 10:22:20;;;;;;;9.63;4.10;;;14.60;99.90;;;;;;5071175;28;20155;-71
2021/09/25 10:25:11;;;;;;;10.38;4.30;;;14.60;99.90;;;;;;5072623;28;20024;-71
2021/09/25 10:27:41;;;;;;;13.35;4.03;;;14.60;99.90;;;;;;5072534;28;20024;-70
2021/09/25 10:30:10;;;;;;;;;;;14.60;99.90;;;;;;5072921;28;20111;-70
2021/09/25 10:32:44;;;;;;;9.98;3.67;;;14.60;99.90;;;;;;5073181;28;19904;-72
2021/09/25 10:35:17;;;;;;;10.68;4.22;;;14.60;99.90;;;;;;5076360;28;20066;-73
2021/09/25 10:37:55;;;;;;;10.88;4.10;;;14.70;99.90;;;;;;5075068;28;20111;-70
2021/09/25 10:40:24;;;;;;;6.80;3.67;;;14.70;99.90;;;;;;5076213;28;20495;-71
2021/09/25 10:43:04;;;;;;;7.85;3.78;;;14.70;99.90;;;;;;5076307;28;20122;-70
2021/09/25 10:45:37;;;;;;;9.90;3.90;;;14.60;99.90;;;;;;5076205;28;20036;-70
2021/09/25 10:48:11;;;;;;;7.63;3.97;;;14.60;99.90;;;;;;5075995;28;20504;-71
2021/09/25 10:50:41;;;;;;;10.05;3.28;;;14.40;99.90;;;;;;5076166;28;20036;-72
2021/09/25 10:53:11;;;;;;;12.18;4.35;;;14.40;99.90;;;;;;5074745;28;20017;-70
2021/09/25 10:55:40;;;;;;;10.23;4.45;;;14.30;99.90;;;;;;5076173;28;20422;-71
2021/09/25 10:58:28;;;;;;;11.13;4.20;;;14.30;99.90;;;;;;5075949;28;20036;-71
2021/09/25 11:00:58;;;;;;;11.05;4.80;;;14.30;99.90;;;;;;5076082;28;20029;-72
2021/09/25 11:03:44;;;;;;;10.80;4.20;;;14.30;99.90;;;;;;5075772;28;20074;-71
2021/09/25 11:06:12;;;;;;;14.57;4.55;;;14.20;99.90;;;;;;5075771;28;20024;-71
2021/09/25 11:09:03;;;;;;;8.73;4.40;;;14.20;99.90;;;;;;5074465;28;20035;-72
2021/09/25 11:11:47;;;;;;;9.52;4.22;;;14.10;99.90;;;;;;5074276;28;20377;-70
2021/09/25 11:14:16;;;;;;;8.52;4.53;;;14.10;99.90;;;;;;5075695;28;20048;-73
2021/09/25 11:17:09;;;;;;;10.50;5.00;;;14.00;99.90;;;;;;5075372;28;20049;-72
2021/09/25 11:19:51;;;;;;;10.55;4.80;;;14.10;99.90;;;;;;5075692;28;20052;-72
2021/09/25 11:22:23;;;;;;;10.30;5.03;;;14.00;99.90;;;;;;5075509;28;20114;-71
2021/09/25 11:24:56;;;;;;;9.73;4.95;;;14.00;99.90;;;;;;5075486;28;20032;-71
2021/09/25 11:27:30;;;;;;;14.35;5.15;;;13.90;99.90;;;;;;5074109;28;20028;-71
2021/09/25 11:30:01;;;;;;;10.85;4.63;;;13.90;99.90;;;;;;5075682;28;20549;-71
2021/09/25 11:32:31;;;;;;;11.20;5.15;;;13.90;99.90;;;;;;5075484;28;20043;-71
2021/09/25 11:35:00;;;;;;;10.90;4.65;;;13.90;99.90;;;;;;5075344;28;20104;-72
2021/09/25 11:37:29;;;;;;;12.38;5.03;;;13.90;99.90;;;;;;5075243;28;20020;-71
2021/09/25 11:39:58;;;;;;;12.73;5.35;;;13.80;99.90;;;;;;5073852;28;20029;-72
2021/09/25 11:42:28;;;;;;;12.68;4.80;;;13.80;99.90;;;;;;5073444;28;20460;-71
2021/09/25 11:45:14;;;;;;;9.93;4.60;;;13.80;99.90;;;;;;5075067;28;20028;-72
2021/09/25 11:47:47;;;;;;;11.30;5.25;;;13.80;99.90;;;;;;5075222;28;20115;-71
2021/09/25 11:50:16;;;;;;;9.57;4.75;;;13.80;99.90;;;;;;5075222;28;20049;-71
2021/09/25 11:53:05;;;;;;;9.88;4.70;;;13.80;99.90;;;;;;5073771;28;20074;-72
2021/09/25 11:55:33;;;;;;;13.65;5.43;;;13.80;99.90;;;;;;5074967;28;20099;-71
2021/09/25 11:58:07;;;;;;;7.32;4.53;;;13.80;99.90;;;;;;5074907;28;20078;-72
2021/09/25 12:00:48;;;;;;;11.43;5.05;;;13.70;99.90;;;;;;5074980;28;20473;-72
2021/09/25 12:03:18;;;;;;;15.07;5.53;;;13.70;99.90;;;;;;5074835;28;20108;-72
2021/09/25 12:05:47;;;;;;;6.85;4.53;;;13.60;99.90;;;;;;5074691;28;20021;-71
2021/09/25 12:08:21;;;;;;;10.55;4.60;;;13.50;99.90;;;;;;5074747;28;20029;-72
2021/09/25 12:10:55;;;;;;;10.38;4.97;;;13.50;99.90;;;;;;5073340;28;20020;-72
2021/09/25 12:13:26;;;;;;;10.88;4.63;;;13.50;99.90;;;;;;5074636;28;20017;-71
2021/09/25 12:15:57;;;;;;;11.05;5.60;;;13.50;99.90;;;;;;5073327;28;20083;-72
2021/09/25 12:18:26;;;;;;;10.48;5.05;;;13.50;99.90;;;;;;5074616;28;20033;-71
2021/09/25 12:21:01;;;;;;;12.40;5.25;;;13.50;99.90;;;;;;5074536;28;20020;-72
2021/09/25 12:23:41;;;;;;;8.52;4.93;;;13.60;99.90;;;;;;5073166;28;20507;-71
2021/09/25 12:26:10;;;;;;;10.18;5.22;;;13.60;99.90;;;;;;5074448;28;20021;-71
2021/09/25 12:28:58;;;;;;;7.80;5.30;;;13.60;99.90;;;;;;5073184;28;20432;-71
2021/09/25 12:31:37;;;;;;;11.93;5.80;;;13.60;99.90;;;;;;5074197;28;20034;-71
2021/09/25 12:34:07;;;;;;;9.77;5.40;;;13.60;99.90;;;;;;5074307;28;20078;-70
2021/09/25 12:36:41;;;;;;;9.93;4.63;;;13.70;99.90;;;;;;5074359;28;20026;-70
2021/09/25 12:39:12;;;;;;;9.95;4.53;;;13.70;99.90;;;;;;5074442;28;20016;-70
2021/09/25 12:41:46;;;;;;;9.52;4.43;;;13.70;99.90;;;;;;5073982;28;20036;-70
2021/09/25 12:44:16;;;;;;;13.27;5.50;;;13.60;99.90;;;;;;5074100;28;20496;-70
2021/09/25 12:46:51;;;;;;;8.60;4.40;;;13.50;99.90;;;;;;5073994;28;20073;-70
2021/09/25 12:49:18;;;;;;;10.15;4.95;;;13.50;99.90;;;;;;5074211;28;20024;-70
2021/09/25 12:51:54;;;;;;;11.40;4.72;;;13.50;99.90;;;;;;5073836;28;20052;-70
2021/09/25 12:54:32;;;;;;;5.93;4.45;;;13.50;99.90;;;;;;5071852;28;20020;-70